createdAt,value
2017-12-10T00:00:11.591Z,1.90
2017-12-10T00:02:41.178Z,1.90
2017-12-10T00:05:10.066Z,1.90
2017-12-10T00:07:38.601Z,1.90
2017-12-10T00:10:07.445Z,1.90
2017-12-10T00:12:36.313Z,1.80
2017-12-10T00:15:04.824Z,1.80
2017-12-10T00:17:34.441Z,1.80
2017-12-10T00:20:04.364Z,1.80
2017-12-10T00:22:33.978Z,1.70
2017-12-10T00:25:02.509Z,1.70
2017-12-10T00:27:31.070Z,1.70
2017-12-10T00:29:59.629Z,1.70
2017-12-10T00:32:28.493Z,1.80
2017-12-10T00:34:57.281Z,1.80
2017-12-10T00:37:25.513Z,1.80
2017-12-10T00:39:56.166Z,1.80
2017-12-10T00:42:27.924Z,1.90
2017-12-10T00:44:56.484Z,1.90
2017-12-10T00:47:25.010Z,1.90
2017-12-10T00:49:53.224Z,1.90
2017-12-10T00:52:21.434Z,1.90
2017-12-10T00:54:49.658Z,2.00
2017-12-10T00:57:17.889Z,2.00
2017-12-10T00:59:46.113Z,1.90
2017-12-10T01:02:15.375Z,1.90
2017-12-10T01:04:44.781Z,1.90
2017-12-10T01:07:14.009Z,1.90
2017-12-10T01:09:42.202Z,1.90
2017-12-10T01:12:10.741Z,1.90
2017-12-10T01:14:38.959Z,1.90
2017-12-10T01:17:08.257Z,1.90
2017-12-10T01:19:37.241Z,1.80
2017-12-10T01:22:07.211Z,1.80
2017-12-10T01:24:36.818Z,1.80
2017-12-10T01:27:05.997Z,1.70
2017-12-10T01:29:34.524Z,1.70
2017-12-10T01:32:02.726Z,1.70
2017-12-10T01:34:31.746Z,1.70
2017-12-10T01:37:00.572Z,1.70
2017-12-10T01:39:28.802Z,1.70
2017-12-10T01:41:57.237Z,1.70
2017-12-10T01:44:25.445Z,1.60
2017-12-10T01:46:54.418Z,1.60
2017-12-10T01:49:22.622Z,1.60
2017-12-10T01:51:51.593Z,1.60
2017-12-10T01:54:19.794Z,1.60
2017-12-10T01:56:48.002Z,1.50
2017-12-10T01:59:16.113Z,1.50
2017-12-10T02:01:44.334Z,1.50
2017-12-10T02:04:13.330Z,1.50
2017-12-10T02:06:41.533Z,1.40
2017-12-10T02:09:09.729Z,1.40
2017-12-10T02:11:37.957Z,1.40
2017-12-10T02:14:06.180Z,1.40
2017-12-10T02:16:34.389Z,1.40
2017-12-10T02:19:03.373Z,1.30
2017-12-10T02:21:32.353Z,1.30
2017-12-10T02:24:00.575Z,1.30
2017-12-10T02:26:28.814Z,1.30
2017-12-10T02:28:57.798Z,1.20
2017-12-10T02:31:26.008Z,1.20
2017-12-10T02:33:54.213Z,1.20
2017-12-10T02:36:22.416Z,1.20
2017-12-10T02:38:50.634Z,1.20
2017-12-10T02:41:19.149Z,1.20
2017-12-10T02:43:47.353Z,1.20
2017-12-10T02:46:15.602Z,1.20
2017-12-10T02:48:43.824Z,1.20
2017-12-10T02:51:12.869Z,1.20
2017-12-10T02:53:41.604Z,1.20
2017-12-10T02:56:10.669Z,1.20
2017-12-10T02:58:39.710Z,1.20
2017-12-10T03:01:07.921Z,1.20
2017-12-10T03:03:36.146Z,1.20
2017-12-10T03:06:05.129Z,1.20
2017-12-10T03:08:34.099Z,1.20
2017-12-10T03:11:03.288Z,1.20
2017-12-10T03:13:31.512Z,1.20
2017-12-10T03:16:00.486Z,1.20
2017-12-10T03:18:28.693Z,1.20
2017-12-10T03:20:57.677Z,1.10
2017-12-10T03:23:26.673Z,1.20
2017-12-10T03:25:55.637Z,1.10
2017-12-10T03:28:23.857Z,1.10
2017-12-10T03:30:53.050Z,1.10
2017-12-10T03:33:22.021Z,1.10
2017-12-10T03:35:50.993Z,1.10
2017-12-10T03:38:19.204Z,1.10
2017-12-10T03:40:48.177Z,1.00
2017-12-10T03:43:16.384Z,1.00
2017-12-10T03:45:45.362Z,1.10
2017-12-10T03:48:14.358Z,1.00
2017-12-10T03:50:43.819Z,1.00
2017-12-10T03:53:12.047Z,1.00
2017-12-10T03:55:41.341Z,1.00
2017-12-10T03:58:10.659Z,1.00
2017-12-10T04:00:39.642Z,1.00
2017-12-10T04:03:08.641Z,0.90
2017-12-10T04:05:37.621Z,0.90
2017-12-10T04:08:06.910Z,1.00
2017-12-10T04:10:36.398Z,1.00
2017-12-10T04:13:04.659Z,1.00
2017-12-10T04:15:33.273Z,1.00
2017-12-10T04:18:01.537Z,1.00
2017-12-10T04:20:30.415Z,0.90
2017-12-10T04:22:58.970Z,1.00
2017-12-10T04:25:27.169Z,1.00
2017-12-10T04:27:55.398Z,1.00
2017-12-10T04:30:24.384Z,0.90
2017-12-10T04:32:53.996Z,1.00
2017-12-10T04:35:22.972Z,0.90
2017-12-10T04:37:51.223Z,0.90
2017-12-10T04:40:19.795Z,0.90
2017-12-10T04:42:48.345Z,0.90
2017-12-10T04:45:17.329Z,0.90
2017-12-10T04:47:45.560Z,0.90
2017-12-10T04:50:13.775Z,0.80
2017-12-10T04:52:42.757Z,0.90
2017-12-10T04:55:11.602Z,0.90
2017-12-10T04:57:40.130Z,0.90
2017-12-10T05:00:10.201Z,0.90
2017-12-10T05:02:38.734Z,0.90
2017-12-10T05:05:07.613Z,0.80
2017-12-10T05:07:36.140Z,0.80
2017-12-10T05:10:04.693Z,0.70
2017-12-10T05:12:33.523Z,0.70
2017-12-10T05:15:02.085Z,0.70
2017-12-10T05:17:31.377Z,0.80
2017-12-10T05:19:59.585Z,0.80
2017-12-10T05:22:27.796Z,0.80
2017-12-10T05:24:56.337Z,0.80
2017-12-10T05:27:25.224Z,0.80
2017-12-10T05:29:54.205Z,0.80
2017-12-10T05:32:23.185Z,0.80
2017-12-10T05:34:51.717Z,0.80
2017-12-10T05:37:21.207Z,0.80
2017-12-10T05:39:49.483Z,0.90
2017-12-10T05:42:18.637Z,0.90
2017-12-10T05:44:47.187Z,0.90
2017-12-10T05:47:32.532Z,0.90
2017-12-10T05:50:00.756Z,0.90
2017-12-10T05:52:29.301Z,0.80
2017-12-10T05:54:57.535Z,0.90
2017-12-10T05:57:26.383Z,0.90
2017-12-10T05:59:55.418Z,0.90
2017-12-10T06:02:23.640Z,0.90
2017-12-10T06:04:51.873Z,0.90
2017-12-10T06:07:20.409Z,0.90
2017-12-10T06:09:48.634Z,0.70
2017-12-10T06:12:17.178Z,0.80
2017-12-10T06:14:45.714Z,0.70
2017-12-10T06:17:14.929Z,0.80
2017-12-10T06:19:44.333Z,0.70
2017-12-10T06:22:13.305Z,0.70
2017-12-10T06:24:41.523Z,0.70
2017-12-10T06:27:10.056Z,0.70
2017-12-10T06:29:38.607Z,0.60
2017-12-10T06:32:08.350Z,0.60
2017-12-10T06:34:37.221Z,0.50
2017-12-10T06:37:06.686Z,0.50
2017-12-10T06:39:34.914Z,0.40
2017-12-10T06:42:03.453Z,0.50
2017-12-10T06:44:31.681Z,0.40
2017-12-10T06:47:00.313Z,0.40
2017-12-10T06:49:28.517Z,0.40
2017-12-10T06:51:57.990Z,0.40
2017-12-10T06:54:26.216Z,0.50
2017-12-10T06:56:54.443Z,0.40
2017-12-10T06:59:23.376Z,0.40
2017-12-10T07:01:51.586Z,0.40
2017-12-10T07:04:20.891Z,0.40
2017-12-10T07:06:50.205Z,0.40
2017-12-10T07:09:20.186Z,0.40
2017-12-10T07:11:48.408Z,0.30
2017-12-10T07:14:16.615Z,0.40
2017-12-10T07:16:45.477Z,0.30
2017-12-10T07:19:13.682Z,0.30
2017-12-10T07:21:43.077Z,0.30
2017-12-10T07:24:11.285Z,0.30
2017-12-10T07:26:39.501Z,0.30
2017-12-10T07:29:08.476Z,0.40
2017-12-10T07:31:37.016Z,0.30
2017-12-10T07:34:05.300Z,0.40
2017-12-10T07:36:33.860Z,0.40
2017-12-10T07:39:02.084Z,0.30
2017-12-10T07:41:30.955Z,0.40
2017-12-10T07:43:59.502Z,0.40
2017-12-10T07:46:27.720Z,0.40
2017-12-10T07:48:56.253Z,0.40
2017-12-10T07:51:25.221Z,0.40
2017-12-10T07:53:54.091Z,0.40
2017-12-10T07:56:22.335Z,0.40
2017-12-10T07:58:50.862Z,0.40
2017-12-10T08:01:20.007Z,0.50
2017-12-10T08:03:48.216Z,0.60
2017-12-10T08:06:16.417Z,0.90
2017-12-10T08:08:44.613Z,1.10
2017-12-10T08:11:13.581Z,1.70
2017-12-10T08:13:42.552Z,1.70
2017-12-10T08:16:11.399Z,1.90
2017-12-10T08:18:39.942Z,2.10
2017-12-10T08:21:08.150Z,2.00
2017-12-10T08:23:37.773Z,1.90
2017-12-10T08:26:06.800Z,1.90
2017-12-10T08:28:35.010Z,1.90
2017-12-10T08:31:03.230Z,1.80
2017-12-10T08:33:31.773Z,1.80
2017-12-10T08:36:00.320Z,1.80
2017-12-10T08:38:28.893Z,1.70
2017-12-10T08:40:58.493Z,1.70
2017-12-10T08:43:26.695Z,1.70
2017-12-10T08:45:56.618Z,1.70
2017-12-10T08:48:27.132Z,1.60
2017-12-10T08:50:58.571Z,1.60
2017-12-10T08:53:26.829Z,1.60
2017-12-10T08:55:57.341Z,1.60
2017-12-10T08:58:26.510Z,1.60
2017-12-10T09:00:56.987Z,1.60
2017-12-10T09:03:25.519Z,1.60
2017-12-10T09:05:56.869Z,1.60
2017-12-10T09:08:25.085Z,1.70
2017-12-10T09:10:53.963Z,1.70
2017-12-10T09:13:22.533Z,1.70
2017-12-10T09:15:50.749Z,1.70
2017-12-10T09:18:18.962Z,1.80
2017-12-10T09:20:47.525Z,1.80
2017-12-10T09:23:16.065Z,1.80
2017-12-10T09:25:45.849Z,1.90
2017-12-10T09:28:14.382Z,1.80
2017-12-10T09:30:42.590Z,1.90
2017-12-10T09:33:10.821Z,1.90
2017-12-10T09:35:39.807Z,1.90
2017-12-10T09:38:08.021Z,1.90
2017-12-10T09:40:36.223Z,1.90
2017-12-10T09:43:04.772Z,1.90
2017-12-10T09:45:33.293Z,1.90
2017-12-10T09:48:01.673Z,2.00
2017-12-10T09:50:30.205Z,1.90
2017-12-10T09:52:59.172Z,1.90
2017-12-10T09:55:27.479Z,1.90
2017-12-10T09:57:56.021Z,2.00
2017-12-10T10:00:24.260Z,2.00
2017-12-10T10:02:53.983Z,2.00
2017-12-10T10:05:22.528Z,2.00
2017-12-10T10:07:50.573Z,2.00
2017-12-10T10:12:53.728Z,2.00
2017-12-10T10:15:22.761Z,2.10
2017-12-10T10:18:04.822Z,2.10
2017-12-10T10:20:34.193Z,2.10
2017-12-10T10:23:03.166Z,2.10
2017-12-10T10:25:31.414Z,2.10
2017-12-10T10:28:00.258Z,2.20
2017-12-10T10:30:29.558Z,2.20
2017-12-10T10:32:58.642Z,2.20
2017-12-10T10:35:27.537Z,2.10
2017-12-10T10:40:57.104Z,2.10
2017-12-10T10:43:25.340Z,2.10
2017-12-10T10:45:53.562Z,2.20
2017-12-10T10:48:22.572Z,2.20
2017-12-10T10:50:50.778Z,2.30
2017-12-10T10:53:18.986Z,2.30
2017-12-10T10:55:48.276Z,2.30
2017-12-10T10:58:16.478Z,2.30
2017-12-10T11:00:45.299Z,2.30
2017-12-10T11:03:13.867Z,2.30
2017-12-10T11:05:42.406Z,2.30
2017-12-10T11:08:11.377Z,2.30
2017-12-10T11:10:41.484Z,2.30
2017-12-10T11:13:10.026Z,2.30
2017-12-10T11:15:38.581Z,2.20
2017-12-10T11:18:06.782Z,2.20
2017-12-10T11:20:35.314Z,2.20
2017-12-10T11:23:03.528Z,2.20
2017-12-10T11:25:32.533Z,2.20
2017-12-10T11:28:01.574Z,2.20
2017-12-10T11:30:30.120Z,2.20
2017-12-10T11:32:58.658Z,2.20
2017-12-10T11:35:27.193Z,2.20
2017-12-10T11:37:56.637Z,2.10
2017-12-10T11:40:24.859Z,2.10
2017-12-10T11:42:53.105Z,2.00
2017-12-10T11:45:21.675Z,2.00
2017-12-10T11:47:50.249Z,2.00
2017-12-10T11:50:19.526Z,2.00
2017-12-10T11:52:47.785Z,2.00
2017-12-10T11:55:15.993Z,2.00
2017-12-10T11:57:44.541Z,2.00
2017-12-10T12:00:13.806Z,2.00
2017-12-10T12:02:42.012Z,2.00
2017-12-10T12:05:12.766Z,1.90
2017-12-10T12:07:40.973Z,1.90
2017-12-10T12:10:09.877Z,1.90
2017-12-10T12:12:38.200Z,1.90
2017-12-10T12:15:06.713Z,1.90
2017-12-10T12:17:35.288Z,1.80
2017-12-10T12:20:03.567Z,1.80
2017-12-10T12:22:38.302Z,1.80
2017-12-10T12:25:06.959Z,1.70
2017-12-10T12:27:35.480Z,1.70
2017-12-10T12:30:05.492Z,1.70
2017-12-10T12:32:34.027Z,1.70
2017-12-10T12:35:03.447Z,1.70
2017-12-10T12:37:31.995Z,1.70
2017-12-10T12:40:00.832Z,1.70
2017-12-10T12:42:29.032Z,1.70
2017-12-10T12:44:57.867Z,1.70
2017-12-10T12:47:26.386Z,1.60
2017-12-10T12:49:54.589Z,1.60
2017-12-10T12:52:24.508Z,1.60
2017-12-10T12:54:53.235Z,1.60
2017-12-10T12:57:23.169Z,1.60
2017-12-10T12:59:51.953Z,1.60
2017-12-10T13:02:20.239Z,1.60
2017-12-10T13:04:55.652Z,1.60
2017-12-10T13:07:24.221Z,1.60
2017-12-10T13:10:06.377Z,1.50
2017-12-10T13:12:35.980Z,1.60
2017-12-10T13:15:09.906Z,1.60
2017-12-10T13:17:38.464Z,1.60
2017-12-10T13:20:07.198Z,1.50
2017-12-10T13:22:35.418Z,1.50
2017-12-10T13:25:03.664Z,1.50
2017-12-10T13:30:48.901Z,1.40
2017-12-10T13:33:17.437Z,1.40
2017-12-10T13:35:45.977Z,1.40
2017-12-10T13:38:19.734Z,1.40
2017-12-10T13:43:24.249Z,1.40
2017-12-10T13:45:53.150Z,1.40
2017-12-10T13:48:21.586Z,1.40
2017-12-10T13:51:11.063Z,1.40
2017-12-10T13:53:40.409Z,1.40
2017-12-10T13:56:08.932Z,1.40
2017-12-10T13:58:38.949Z,1.40
2017-12-10T14:01:07.431Z,1.30
2017-12-10T14:03:36.403Z,1.30
2017-12-10T14:06:05.574Z,1.30
2017-12-10T14:08:34.566Z,1.40
2017-12-10T14:11:02.788Z,1.30
2017-12-10T14:13:31.665Z,1.40
2017-12-10T14:15:59.863Z,1.40
2017-12-10T14:18:29.179Z,1.40
2017-12-10T14:20:58.153Z,1.30
2017-12-10T14:23:26.369Z,1.30
2017-12-10T14:25:55.219Z,1.30
2017-12-10T14:28:24.265Z,1.30
2017-12-10T14:30:53.828Z,1.30
2017-12-10T14:33:22.838Z,1.30
2017-12-10T14:35:51.394Z,1.30
2017-12-10T14:38:19.992Z,1.40
2017-12-10T14:40:48.952Z,1.40
2017-12-10T14:43:17.841Z,1.30
2017-12-10T14:45:47.081Z,1.30
2017-12-10T14:48:16.381Z,1.40
2017-12-10T14:50:46.043Z,1.40
2017-12-10T14:53:14.267Z,1.30
2017-12-10T14:55:44.361Z,1.40
2017-12-10T14:58:13.130Z,1.30
2017-12-10T15:00:41.333Z,1.40
2017-12-10T15:03:09.881Z,1.40
2017-12-10T15:05:40.140Z,1.40
2017-12-10T15:08:08.733Z,1.30
2017-12-10T15:10:37.719Z,1.30
2017-12-10T15:13:06.257Z,1.30
2017-12-10T15:15:34.841Z,1.30
2017-12-10T15:18:03.714Z,1.30
2017-12-10T15:20:31.921Z,1.30
2017-12-10T15:23:00.145Z,1.20
2017-12-10T15:25:29.502Z,1.10
2017-12-10T15:27:57.884Z,1.10
2017-12-10T15:30:26.084Z,1.00
2017-12-10T15:32:54.361Z,1.00
2017-12-10T15:35:23.221Z,1.00
2017-12-10T15:37:51.763Z,1.00
2017-12-10T15:40:20.733Z,1.00
2017-12-10T15:42:49.270Z,0.90
2017-12-10T15:45:17.813Z,0.90
2017-12-10T15:47:47.233Z,0.90
2017-12-10T15:50:16.225Z,0.70
2017-12-10T15:52:45.546Z,0.60
2017-12-10T15:55:14.084Z,0.60
2017-12-10T15:57:42.468Z,0.60
2017-12-10T16:00:10.688Z,0.50
2017-12-10T16:02:38.939Z,0.50
2017-12-10T16:05:08.624Z,0.30
2017-12-10T16:07:36.877Z,0.30
2017-12-10T16:10:05.717Z,0.30
2017-12-10T16:12:35.884Z,0.30
2017-12-10T16:15:05.567Z,0.20
2017-12-10T16:17:34.102Z,0.20
2017-12-10T16:20:03.606Z,0.20
2017-12-10T16:22:31.833Z,0.10
2017-12-10T16:25:00.689Z,0.10
2017-12-10T16:27:29.277Z,0.10
2017-12-10T16:29:57.485Z,0.00
2017-12-10T16:32:25.700Z,0.00
2017-12-10T16:34:54.228Z,0.00
2017-12-10T16:37:23.109Z,0.00
2017-12-10T16:39:53.291Z,0.00
2017-12-10T16:42:21.499Z,0.00
2017-12-10T16:44:50.825Z,0.00
2017-12-10T16:47:19.374Z,0.00
2017-12-10T16:49:47.909Z,0.10
2017-12-10T16:52:16.453Z,0.10
2017-12-10T16:54:45.745Z,0.10
2017-12-10T16:57:14.877Z,0.10
2017-12-10T16:59:43.130Z,0.10
2017-12-10T17:02:12.144Z,0.20
2017-12-10T17:04:41.326Z,0.20
2017-12-10T17:07:10.313Z,0.20
2017-12-10T17:09:38.512Z,0.20
2017-12-10T17:12:07.485Z,0.30
2017-12-10T17:14:36.470Z,0.40
2017-12-10T17:17:04.677Z,0.40
2017-12-10T17:19:33.184Z,0.40
2017-12-10T17:22:01.402Z,0.50
2017-12-10T17:24:29.629Z,0.60
2017-12-10T17:26:58.165Z,0.60
2017-12-10T17:29:26.386Z,0.70
2017-12-10T17:31:54.940Z,0.70
2017-12-10T17:34:24.560Z,0.70
2017-12-10T17:36:53.088Z,0.70
2017-12-10T17:39:21.624Z,0.70
2017-12-10T17:41:49.853Z,0.80
2017-12-10T17:44:18.436Z,0.80
2017-12-10T17:46:47.230Z,0.80
2017-12-10T17:49:15.451Z,0.90
2017-12-10T17:51:43.661Z,0.90
2017-12-10T17:54:12.238Z,0.90
2017-12-10T17:56:40.455Z,1.00
2017-12-10T17:59:09.323Z,1.00
2017-12-10T18:01:37.554Z,1.00
2017-12-10T18:04:08.527Z,1.10
2017-12-10T18:06:36.913Z,1.10
2017-12-10T18:09:05.440Z,1.10
2017-12-10T18:11:34.552Z,1.20
2017-12-10T18:14:03.241Z,1.10
2017-12-10T18:16:31.772Z,1.20
2017-12-10T18:18:59.984Z,1.20
2017-12-10T18:21:28.846Z,1.20
2017-12-10T18:23:57.063Z,1.20
2017-12-10T18:26:25.876Z,1.30
2017-12-10T18:28:54.390Z,1.30
2017-12-10T18:31:24.537Z,1.30
2017-12-10T18:33:52.749Z,1.30
2017-12-10T18:36:21.848Z,1.30
2017-12-10T18:38:51.533Z,1.40
2017-12-10T18:41:20.501Z,1.40
2017-12-10T18:43:48.698Z,1.40
2017-12-10T18:46:17.702Z,1.30
2017-12-10T18:48:46.982Z,1.30
2017-12-10T20:10:13.201Z,1.30
2017-12-10T20:12:41.742Z,2.70
2017-12-10T20:15:10.302Z,2.90
2017-12-10T20:17:38.863Z,3.10
2017-12-10T20:20:07.067Z,3.30
2017-12-10T20:22:35.260Z,3.40
2017-12-10T20:25:03.482Z,3.60
2017-12-10T20:27:32.092Z,3.80
2017-12-10T20:30:01.146Z,3.90
2017-12-10T20:32:29.361Z,3.90
2017-12-10T20:34:57.910Z,4.00
2017-12-10T20:37:27.238Z,4.00
2017-12-10T20:39:55.661Z,4.00
2017-12-10T20:42:23.955Z,4.10
2017-12-10T20:44:52.933Z,4.30
2017-12-10T20:47:21.477Z,4.30
2017-12-10T20:49:50.022Z,4.40
2017-12-10T20:52:19.001Z,4.50
2017-12-10T20:54:47.217Z,4.50
2017-12-10T20:57:16.651Z,4.60
2017-12-10T20:59:45.189Z,4.60
2017-12-10T21:02:14.168Z,4.60
2017-12-10T21:04:42.374Z,4.60
2017-12-10T21:07:10.596Z,4.60
2017-12-10T21:09:39.480Z,4.60
2017-12-10T21:12:07.686Z,4.60
2017-12-10T21:14:36.702Z,4.70
2017-12-10T21:17:04.905Z,4.70
2017-12-10T21:19:34.475Z,4.80
2017-12-10T21:24:55.457Z,5.40
2017-12-10T21:27:27.632Z,6.30
2017-12-10T21:30:08.602Z,7.10
2017-12-10T21:32:37.180Z,7.10
2017-12-10T21:35:06.816Z,7.20
2017-12-10T21:37:36.469Z,6.70
2017-12-10T21:40:05.289Z,6.30
2017-12-10T21:42:34.174Z,6.10
2017-12-10T21:45:04.209Z,6.00
2017-12-10T21:47:33.097Z,6.00
2017-12-10T21:50:01.326Z,5.90
2017-12-10T21:52:29.853Z,5.90
2017-12-10T21:54:58.069Z,5.90
2017-12-10T21:57:27.382Z,6.00
2017-12-10T21:59:56.669Z,6.00
2017-12-10T22:02:26.278Z,6.00
2017-12-10T22:04:55.898Z,6.00
2017-12-10T22:07:25.521Z,6.00
2017-12-10T22:09:54.078Z,6.00
2017-12-10T22:12:23.702Z,6.10
2017-12-10T22:14:52.900Z,6.10
2017-12-10T22:17:22.206Z,6.20
2017-12-10T22:19:50.416Z,6.20
2017-12-10T22:22:18.629Z,6.20
2017-12-10T22:24:46.832Z,6.30
2017-12-10T22:27:15.350Z,6.30
2017-12-10T22:29:44.129Z,6.30
2017-12-10T22:32:13.780Z,6.30
2017-12-10T22:34:42.317Z,6.30
2017-12-10T22:37:10.527Z,6.30
2017-12-10T22:39:39.393Z,6.30
2017-12-10T22:42:07.937Z,6.20
2017-12-10T22:44:37.537Z,6.20
2017-12-10T22:47:07.974Z,6.20
2017-12-10T22:49:37.565Z,6.20
2017-12-10T22:52:06.392Z,6.20
2017-12-10T22:54:35.213Z,6.20
2017-12-10T22:57:04.093Z,6.20
2017-12-10T22:59:33.689Z,6.10
2017-12-10T23:02:02.574Z,6.10
2017-12-10T23:04:31.425Z,6.10
2017-12-10T23:07:00.329Z,6.10
2017-12-10T23:09:29.926Z,6.10
2017-12-10T23:11:58.756Z,6.10
2017-12-10T23:14:39.855Z,6.10
2017-12-10T23:17:08.678Z,6.10
2017-12-10T23:19:38.837Z,6.20
2017-12-10T23:22:07.669Z,6.10
2017-12-10T23:24:36.510Z,5.90
2017-12-10T23:27:06.119Z,5.60
2017-12-10T23:29:35.727Z,5.50
2017-12-10T23:32:04.253Z,5.50
2017-12-10T23:34:32.786Z,5.40
2017-12-10T23:37:02.119Z,5.20
2017-12-10T23:39:30.674Z,5.20
2017-12-10T23:42:00.285Z,5.10
2017-12-10T23:44:29.565Z,5.10
2017-12-10T23:46:58.140Z,5.10
2017-12-10T23:49:26.965Z,5.10
2017-12-10T23:51:56.572Z,5.00
2017-12-10T23:54:26.185Z,5.00
2017-12-10T23:56:55.018Z,5.00
2017-12-10T23:59:23.868Z,5.00
